Pomorie — V4JJ2 — position and weather

sailwx.info

Track history (hours):
 
Tides and Currents Weather Stations Pressure Air Temp Water Temp Dewpoint Dewpoint Depression Visibility Wind Speed Wind Dir Waves Ship Positions

Pomorie

Last reported at 2016-Apr-23 08:06 UTC. Time now 2016-May-03 10:40 UTC.
Position N 40°59' E 028°60'.
Warning: this ship's position is 10 days out of date.

Length 114 m; draft 2.8 m.

Type: Cargo ship. MMSI: 341071000.

Date/timePositionNaut miles runAvg speedWind from/ knotsBaromVisibWave heightAir tempDewpointWater temp
2016-Apr-23 08:06N 40°59' E 028°60'3 4.7
2016-Apr-23 07:31N 40°56' E 028°58'1 0.0
2016-Apr-22 09:07N 40°56' E 028°57'5 8.4
2016-Apr-22 08:30N 40°52' E 028°53'262 5.2
2016-Apr-20 06:27N 36°40' E 027°21'8 9.3
2016-Apr-20 05:33N 36°37' E 027°31'9 8.8
2016-Apr-20 04:32N 36°33' E 027°41'9 9.0
2016-Apr-20 03:34N 36°30' E 027°52'267 8.9
2016-Apr-18 21:29N 34°33' E 032°46'8 8.2
2016-Apr-18 20:33N 34°30' E 032°54'8 7.6
2016-Apr-18 19:33N 34°29' E 033°04'8 8.3
2016-Apr-18 18:33N 34°33' E 033°13'9 8.7
2016-Apr-18 17:33N 34°38' E 033°22'9 8.6
2016-Apr-18 16:33N 34°42' E 033°31'8 8.3
2016-Apr-18 15:32N 34°47' E 033°39'8 0.4
2016-Apr-17 16:10N 34°56' E 033°39'0 0.0
2016-Apr-17 10:10N 34°56' E 033°39'0 0.0
2016-Apr-17 09:31N 34°56' E 033°39'0 0.0
2016-Apr-17 08:31N 34°56' E 033°39'0 0.0
2016-Apr-15 15:22N 34°56' E 033°39'0 0.0
2016-Apr-15 14:31N 34°56' E 033°39'0 0.0
2016-Apr-15 13:28N 34°56' E 033°39'28 1.0
2016-Apr-14 09:09N 34°35' E 033°15'5 8.0
2016-Apr-14 08:34N 34°33' E 033°10'8 8.4
2016-Apr-14 07:33N 34°29' E 033°01'8 7.8
2016-Apr-14 06:34N 34°31' E 032°52'  
Track history (hours):
 
Tides and Currents Weather Stations Pressure Air Temp Water Temp Dewpoint Dewpoint Depression Visibility Wind Speed Wind Dir Waves Ship Positions

Pomorie

Last reported at 2016-Apr-23 08:06 UTC. Time now 2016-May-03 10:40 UTC.
Position N 40°59' E 028°60'.
Warning: this ship's position is 10 days out of date.

Length 114 m; draft 2.8 m.

Type: Cargo ship. MMSI: 341071000.

Date/timePositionNaut miles runAvg speedWind from/ knotsBaromVisibWave heightAir tempDewpointWater temp
2016-Apr-23 08:06N 40°59' E 028°60'3 4.7
2016-Apr-23 07:31N 40°56' E 028°58'1 0.0
2016-Apr-22 09:07N 40°56' E 028°57'5 8.4
2016-Apr-22 08:30N 40°52' E 028°53'262 5.2
2016-Apr-20 06:27N 36°40' E 027°21'8 9.3
2016-Apr-20 05:33N 36°37' E 027°31'9 8.8
2016-Apr-20 04:32N 36°33' E 027°41'9 9.0
2016-Apr-20 03:34N 36°30' E 027°52'267 8.9
2016-Apr-18 21:29N 34°33' E 032°46'8 8.2
2016-Apr-18 20:33N 34°30' E 032°54'8 7.6
2016-Apr-18 19:33N 34°29' E 033°04'8 8.3
2016-Apr-18 18:33N 34°33' E 033°13'9 8.7
2016-Apr-18 17:33N 34°38' E 033°22'9 8.6
2016-Apr-18 16:33N 34°42' E 033°31'8 8.3
2016-Apr-18 15:32N 34°47' E 033°39'8 0.4
2016-Apr-17 16:10N 34°56' E 033°39'0 0.0
2016-Apr-17 10:10N 34°56' E 033°39'0 0.0
2016-Apr-17 09:31N 34°56' E 033°39'0 0.0
2016-Apr-17 08:31N 34°56' E 033°39'0 0.0
2016-Apr-15 15:22N 34°56' E 033°39'0 0.0
2016-Apr-15 14:31N 34°56' E 033°39'0 0.0
2016-Apr-15 13:28N 34°56' E 033°39'28 1.0
2016-Apr-14 09:09N 34°35' E 033°15'5 8.0
2016-Apr-14 08:34N 34°33' E 033°10'8 8.4
2016-Apr-14 07:33N 34°29' E 033°01'8 7.8
2016-Apr-14 06:34N 34°31' E 032°52'  

Dump ship's entire track history